Oshawa Airport
CYOO : now visible

Airfield :











YOU CAN JOIN US ON...

 
LOGIN :

Register | Disclaimer

   EN    FR    IT 

 









Legend :    VFR   Marginal VFR   IFR   Intensive IFR   Very Intensive IFR
Visi :
Ceiling :
>= 8 km
>= 3000ft
5 to 8 km
1000 to 3000 ft
1500m to 5 km
500 to 1000 ft
800 to 1500m
200 to 500 ft
< 800m
< 200 ft
Symbols :   Thunderstorms  Fog  Heavy snow  Heavy precipitations  Wind > 20 kt






- Airport Elevation : 459 ft
- IATA code : YOO


CYOO - Oshawa

CURRENT METAR :
  • 090100Z AUTO 13004KT 100V180 9SM CLR 27/20 A2986 RMK SLP112 DENSITY ALT 1900FT

EXPIRED METARs :
  • 090000Z AUTO 21008KT 9SM CLR 30/19 A2986 RMK SLP108 DENSITY ALT 2200FT
  • 082300Z AUTO 18007KT 160V230 9SM CLR 32/19 A2986 RMK SLP109 DENSITY ALT 2500FT

TAF TAF CYOO
Valid from the 08 at 20:00 until the 09 at 08:00 UTC


081944Z 0820/0908 20008KT P6SM SCT040
TEMPO 0820/0823 4SM HZ
PROB30 0820/0823 2SM +TSRA BR OVC040CB
FM090000 22008KT P6SM FEW040 RMK FCST BASED ON AUTO OBS. NXT FCST BY 090200Z
CZYZ FIR / North America



MET'MAP, your aeronautical weather chart ! - Copyright ORBIFLY December 2007 - Disclaimer

ORBIFLY MET'MAP TEAM :

Programming & Development : Alexandra Zaïnal
Concept & original design : Baudouin d'Aumeries
Assistance for programming : Marc-Olivier Méhu
Technical & hardware support : Manuel Goepfert

Contact : metmap@orbifly.com




SOURCES & CREDITS :

   NOAA       Earth
Advisory